WABB/BIK METAR and TAF weather

Enter ICAO airport designator
Station Type Date Time Source
WABB METAR 2019/06/27 04:00 UTC NOAA

WABB 270400Z 02003KT 9999 SCT018 BKN100 28/26 Q1008


Station Type Date Time Source
WABB Decoded METAR 2019/06/27 04:00 UTC NOAA

Biak / Mokmer, Indonesia (WABB) 01-11S 136-07E 11M
Jun 27, 2019 - 12:00 AM EDT / 2019.06.27 0400 UTC
Wind: from the NNE (020 degrees) at 3 MPH (3 KT):0
Visibility: greater than 7 mile(s):0
Sky conditions: mostly cloudy
Temperature: 82 F (28 C)
Dew Point: 78 F (26 C)
Relative Humidity: 88%
Pressure (altimeter): 29.77 in. Hg (1008 hPa)
ob: WABB 270400Z 02003KT 9999 SCT018 BKN100 28/26 Q1008
cycle: 4

Station Type Date Time Source
WABB TAF 2019/06/26 18:55 UTC NOAA

TAF WABB 261700Z 2618/2800 00000KT 9999 SCT018
BECMG 2622/2700 25006KT

Example: see airport list